Time;durP1;ratioP1;P1;durP2;ratioP2;P2;SDS_P1;SDS_P2;PMS_P1;PMS_P2;Temp;Humidity;BMP_temperature;BMP_pressure;BME280_temperature;BME280_humidity;BME280_pressure;Samples;Min_cycle;Max_cycle;Signal;HPM_P1;HPM_P2
2021/04/30 00:00:38;;;;;;;4.55;1.75;;;;;;;17.25;32.36;101114.44;4176204;28;20040;-45
2021/04/30 00:02:41;;;;;;;4.93;2.42;;;;;;;17.29;32.41;101121.13;4173909;28;20037;-52
2021/04/30 00:04:41;;;;;;;4.05;2.45;;;;;;;17.23;32.57;101122.19;4175464;28;20040;-46
2021/04/30 00:06:42;;;;;;;4.22;2.08;;;;;;;17.26;32.46;101118.06;4177092;28;20037;-47
2021/04/30 00:08:42;;;;;;;7.40;2.50;;;;;;;17.07;32.82;101090.78;4174334;28;20037;-47
2021/04/30 00:10:43;;;;;;;3.53;2.08;;;;;;;17.25;32.50;101113.63;4175122;28;20037;-50
2021/04/30 00:12:44;;;;;;;5.78;3.03;;;;;;;17.13;32.73;101107.41;4173545;28;20455;-49
2021/04/30 00:14:44;;;;;;;5.03;2.45;;;;;;;17.22;32.47;101111.38;4176491;28;20159;-48
2021/04/30 00:16:45;;;;;;;5.85;2.50;;;;;;;17.19;32.65;101114.66;4173665;28;20116;-48
2021/04/30 00:18:45;;;;;;;5.97;2.75;;;;;;;17.22;32.80;101114.97;4175005;28;20081;-49
2021/04/30 00:21:04;;;;;;;5.22;2.15;;;;;;;17.25;32.39;101117.22;4176465;28;20117;-47
2021/04/30 00:23:11;;;;;;;4.93;2.80;;;;;;;17.27;32.55;101111.41;4175903;28;20036;-48
2021/04/30 00:25:12;;;;;;;3.83;2.75;;;;;;;17.18;32.71;101107.44;4176632;28;20116;-46
2021/04/30 00:27:12;;;;;;;5.45;2.90;;;;;;;17.22;32.40;101114.97;4174070;28;20534;-47
2021/04/30 00:29:13;;;;;;;8.77;3.60;;;;;;;17.26;32.45;101105.06;4175421;28;20041;-48
2021/04/30 00:31:13;;;;;;;7.38;2.60;;;;;;;17.20;32.79;101108.03;4176321;28;20041;-49
2021/04/30 00:33:14;;;;;;;6.18;3.17;;;;;;;17.25;32.63;101108.09;4173470;28;20033;-49
2021/04/30 00:35:14;;;;;;;4.75;2.33;;;;;;;17.19;32.72;101117.44;4176040;28;20049;-50
2021/04/30 00:37:15;;;;;;;4.85;2.60;;;;;;;17.23;32.66;101113.88;4175580;28;20048;-47
2021/04/30 00:39:15;;;;;;;5.70;2.42;;;;;;;17.26;32.50;101107.81;4175033;28;20509;-46
2021/04/30 00:41:16;;;;;;;3.45;1.95;;;;;;;17.06;32.48;101088.25;4174949;28;20032;-47
2021/04/30 00:43:16;;;;;;;5.70;2.15;;;;;;;17.18;32.29;101112.97;4176345;28;20139;-51
2021/04/30 00:45:19;;;;;;;7.43;2.47;;;;;;;17.14;32.70;101111.84;4175455;28;20039;-48
2021/04/30 00:47:27;;;;;;;5.30;2.47;;;;;;;17.12;32.61;101114.88;4175100;28;20037;-45
2021/04/30 00:49:27;;;;;;;6.07;3.25;;;;;;;17.02;32.21;101087.97;4176001;28;20029;-46
2021/04/30 00:51:28;;;;;;;5.47;2.60;;;;;;;17.15;32.58;101110.72;4175405;28;20402;-48
2021/04/30 00:53:28;;;;;;;4.97;2.90;;;;;;;17.08;32.76;101106.25;4174706;28;20041;-45
2021/04/30 00:55:29;;;;;;;5.47;3.15;;;;;;;16.84;32.70;101067.03;4176199;28;20033;-45
2021/04/30 00:57:29;;;;;;;6.35;2.80;;;;;;;17.11;32.63;101114.03;4174354;28;20028;-44
2021/04/30 00:59:30;;;;;;;5.28;2.40;;;;;;;17.01;32.73;101091.81;4175778;28;20066;-47
2021/04/30 01:01:30;;;;;;;5.80;2.80;;;;;;;17.11;32.59;101110.44;4176344;28;20075;-44
2021/04/30 01:03:31;;;;;;;3.33;2.35;;;;;;;17.13;32.56;101110.16;4173718;28;20029;-46
2021/04/30 01:05:31;;;;;;;4.95;2.40;;;;;;;17.14;32.68;101109.09;4174436;28;20091;-51
2021/04/30 01:07:32;;;;;;;7.80;2.20;;;;;;;17.01;33.00;101111.16;4173697;28;21181;-49
2021/04/30 01:09:33;;;;;;;5.60;2.20;;;;;;;17.08;32.71;101111.78;4174101;28;20416;-47
2021/04/30 01:11:34;;;;;;;3.88;1.67;;;;;;;17.02;32.68;101110.09;4175453;28;20049;-46
2021/04/30 01:13:34;;;;;;;4.80;2.17;;;;;;;17.10;32.48;101128.13;4174657;28;20399;-45
2021/04/30 01:15:35;;;;;;;5.40;2.00;;;;;;;17.10;32.72;101117.06;4174776;28;20029;-48
2021/04/30 01:17:36;;;;;;;5.05;2.17;;;;;;;17.01;33.07;101113.94;4173538;28;20044;-47
2021/04/30 01:19:36;;;;;;;6.07;2.47;;;;;;;16.98;32.67;101128.28;4174929;28;20033;-46
2021/04/30 01:21:36;;;;;;;4.60;2.20;;;;;;;17.07;32.65;101114.84;4174722;28;20033;-48
2021/04/30 01:23:51;;;;;;;5.57;2.30;;;;;;;17.09;32.57;101121.75;4173484;28;20032;-50
2021/04/30 01:25:51;;;;;;;5.28;2.20;;;;;;;17.08;32.60;101110.94;4172747;28;20051;-46
2021/04/30 01:27:52;;;;;;;5.28;1.98;;;;;;;17.05;32.84;101119.78;4175555;28;20112;-48
2021/04/30 01:29:53;;;;;;;5.43;2.38;;;;;;;17.03;32.61;101111.72;4174883;28;20082;-45
2021/04/30 01:31:54;;;;;;;4.80;2.50;;;;;;;17.07;32.36;101118.44;4174336;28;20403;-49
2021/04/30 01:33:55;;;;;;;3.80;2.25;;;;;;;17.09;32.65;101123.69;4176145;28;20868;-45
2021/04/30 01:35:56;;;;;;;2.33;1.70;;;;;;;17.06;32.43;101122.28;4173974;28;20120;-50
2021/04/30 01:37:57;;;;;;;3.95;1.92;;;;;;;17.02;32.67;101129.44;4174405;28;20151;-47
2021/04/30 01:39:58;;;;;;;4.90;2.05;;;;;;;17.05;32.48;101134.47;4172928;28;20497;-49
2021/04/30 01:41:59;;;;;;;3.90;1.73;;;;;;;16.95;32.63;101123.28;4175155;28;20033;-45
2021/04/30 01:43:59;;;;;;;5.30;2.38;;;;;;;17.00;32.90;101128.84;4174721;28;20490;-50
2021/04/30 01:46:04;;;;;;;7.22;1.98;;;;;;;17.02;32.71;101128.59;4175025;28;20036;-47
2021/04/30 01:48:09;;;;;;;5.97;2.10;;;;;;;17.05;32.47;101128.06;4175060;28;20119;-44
2021/04/30 01:50:13;;;;;;;4.05;2.13;;;;;;;16.99;32.76;101134.63;4175427;28;20043;-47
2021/04/30 01:52:13;;;;;;;4.72;1.90;;;;;;;17.01;32.78;101127.75;4174897;28;20057;-44
2021/04/30 01:54:13;;;;;;;4.53;1.90;;;;;;;16.96;32.94;101135.16;4174505;28;20514;-44
2021/04/30 01:56:14;;;;;;;3.88;2.30;;;;;;;17.00;32.69;101139.09;4175705;28;20036;-45
2021/04/30 01:58:16;;;;;;;4.90;2.08;;;;;;;16.88;32.96;101134.53;4174890;28;20032;-46
2021/04/30 02:00:23;;;;;;;4.18;2.13;;;;;;;16.92;32.85;101141.19;4174728;28;20036;-47
2021/04/30 02:02:24;;;;;;;3.25;1.83;;;;;;;16.92;32.94;101129.31;4172028;28;20751;-46
2021/04/30 02:04:25;;;;;;;3.70;1.85;;;;;;;16.92;32.85;101137.63;4176269;28;20035;-45
2021/04/30 02:06:26;;;;;;;7.20;2.30;;;;;;;16.91;32.78;101139.56;4176311;28;20017;-45
2021/04/30 02:08:26;;;;;;;4.53;2.03;;;;;;;16.89;32.97;101143.66;4177194;28;20036;-45
2021/04/30 02:10:27;;;;;;;3.92;2.20;;;;;;;16.85;32.81;101129.53;4177629;28;20433;-46
2021/04/30 02:12:28;;;;;;;5.03;1.88;;;;;;;16.85;32.92;101139.72;4176798;28;20040;-45
2021/04/30 02:14:28;;;;;;;3.22;1.98;;;;;;;16.81;32.73;101133.06;4176630;28;20510;-46
2021/04/30 02:16:29;;;;;;;6.40;3.15;;;;;;;16.84;33.27;101135.31;4177863;28;20033;-45
2021/04/30 02:18:30;;;;;;;5.45;2.17;;;;;;;16.82;33.19;101138.34;4177394;28;20162;-44
2021/04/30 02:20:31;;;;;;;4.20;2.10;;;;;;;16.82;32.97;101132.81;4177525;28;20033;-44
2021/04/30 02:22:31;;;;;;;6.43;2.15;;;;;;;16.81;32.90;101135.81;4178606;28;20033;-44
2021/04/30 02:24:32;;;;;;;5.10;2.45;;;;;;;16.81;32.97;101147.72;4178214;28;20609;-46
2021/04/30 02:26:33;;;;;;;4.30;2.58;;;;;;;16.79;32.97;101135.22;4176948;28;20029;-45
2021/04/30 02:28:33;;;;;;;3.97;1.80;;;;;;;16.84;32.80;101138.06;4177613;28;20429;-45
2021/04/30 02:30:36;;;;;;;6.95;2.50;;;;;;;16.75;33.34;101141.28;4177564;28;20033;-46
2021/04/30 02:32:36;;;;;;;4.55;2.35;;;;;;;16.75;33.25;101141.28;4175760;28;20041;-45
2021/04/30 02:34:37;;;;;;;4.50;1.80;;;;;;;16.82;32.89;101146.63;4176316;28;20035;-47
2021/04/30 02:36:37;;;;;;;3.72;2.10;;;;;;;16.84;33.19;101149.97;4173028;28;20040;-44
2021/04/30 02:38:38;;;;;;;4.32;2.08;;;;;;;16.81;32.85;101146.88;4178168;28;20041;-47
2021/04/30 02:40:40;;;;;;;4.45;2.20;;;;;;;16.62;32.95;101118.69;4178848;28;20041;-45
2021/04/30 02:42:42;;;;;;;3.65;2.10;;;;;;;16.80;33.12;101145.22;4176902;28;20043;-45
2021/04/30 02:44:44;;;;;;;2.97;2.00;;;;;;;16.78;33.19;101144.63;4175201;28;20037;-45
2021/04/30 02:46:44;;;;;;;4.68;2.67;;;;;;;16.80;32.95;101137.75;4176623;28;20041;-48
2021/04/30 02:48:47;;;;;;;3.00;1.98;;;;;;;16.83;32.86;101142.75;4177746;28;20044;-45
2021/04/30 02:50:48;;;;;;;4.15;2.28;;;;;;;16.87;33.05;101143.09;4176622;28;20048;-46
2021/04/30 02:52:49;;;;;;;3.42;1.80;;;;;;;16.86;32.78;101133.13;4175246;28;20447;-45
2021/04/30 02:54:51;;;;;;;5.40;2.03;;;;;;;16.83;33.15;101133.63;4172813;28;20043;-49
2021/04/30 02:56:51;;;;;;;4.85;2.28;;;;;;;16.84;32.97;101140.84;4176213;28;20067;-45
2021/04/30 02:58:55;;;;;;;5.25;2.05;;;;;;;16.82;33.10;101137.47;4177498;28;20795;-48
2021/04/30 03:00:56;;;;;;;3.50;2.00;;;;;;;16.67;33.14;101138.16;4174953;28;20059;-47
2021/04/30 03:02:58;;;;;;;4.97;2.25;;;;;;;16.82;32.83;101154.94;4173325;28;20175;-47
2021/04/30 03:04:58;;;;;;;3.10;1.95;;;;;;;16.67;32.80;101127.09;4172494;28;20475;-49
2021/04/30 03:06:59;;;;;;;5.65;2.20;;;;;;;16.82;33.00;101151.31;4175800;28;20039;-48
2021/04/30 03:08:59;;;;;;;2.65;1.75;;;;;;;16.80;32.95;101153.50;4174172;28;20029;-45
2021/04/30 03:11:00;;;;;;;3.83;1.90;;;;;;;16.79;32.66;101149.06;4176448;28;20056;-49
2021/04/30 03:13:00;;;;;;;5.40;2.30;;;;;;;16.77;32.84;101149.31;4177810;28;20566;-45
2021/04/30 03:15:00;;;;;;;4.30;2.30;;;;;;;16.77;32.96;101148.47;4176429;28;20082;-50
2021/04/30 03:17:01;;;;;;;5.15;1.77;;;;;;;16.78;32.96;101151.00;4174333;28;20032;-48
2021/04/30 03:19:02;;;;;;;4.53;1.77;;;;;;;16.79;32.97;101143.53;4177949;28;20060;-49
2021/04/30 03:21:02;;;;;;;3.90;1.40;;;;;;;16.70;33.07;101135.69;4175860;28;20044;-46
2021/04/30 03:23:03;;;;;;;2.90;1.80;;;;;;;16.74;33.18;101149.81;4176587;28;20068;-47
2021/04/30 03:25:05;;;;;;;4.22;1.65;;;;;;;16.68;33.19;101142.56;4176722;28;20033;-48
2021/04/30 03:27:05;;;;;;;4.93;1.73;;;;;;;16.75;33.14;101152.34;4177046;28;20474;-47
2021/04/30 03:29:06;;;;;;;4.85;1.65;;;;;;;16.68;33.08;101148.94;4176782;28;20032;-46
2021/04/30 03:31:06;;;;;;;5.90;2.30;;;;;;;16.73;33.10;101160.06;4176534;28;20036;-48
2021/04/30 03:33:07;;;;;;;4.20;2.40;;;;;;;16.75;32.92;101159.81;4176961;28;20037;-47
2021/04/30 03:35:08;;;;;;;5.38;1.75;;;;;;;16.73;32.92;101162.81;4176005;28;20048;-47
2021/04/30 03:37:08;;;;;;;3.88;2.00;;;;;;;16.72;32.97;101161.13;4175238;28;20045;-47
2021/04/30 03:39:09;;;;;;;3.92;2.28;;;;;;;16.72;32.95;101166.66;4177053;28;20040;-49
2021/04/30 03:41:09;;;;;;;2.85;1.67;;;;;;;16.48;33.17;101121.00;4174775;28;20044;-49
2021/04/30 03:43:10;;;;;;;4.13;2.00;;;;;;;16.71;33.09;101164.16;4174768;28;20044;-47
2021/04/30 03:45:12;;;;;;;2.30;1.35;;;;;;;16.69;33.21;101172.72;4177107;28;20071;-46
2021/04/30 03:47:12;;;;;;;3.90;2.20;;;;;;;16.70;33.08;101160.56;4175707;28;20066;-47
2021/04/30 03:49:12;;;;;;;4.35;1.70;;;;;;;16.70;33.05;101168.03;4176189;28;20041;-46
2021/04/30 03:51:13;;;;;;;2.63;1.70;;;;;;;16.68;32.90;101170.19;4177094;28;20041;-53
2021/04/30 03:53:13;;;;;;;3.80;1.67;;;;;;;16.61;33.34;101161.25;4175890;28;20056;-51
2021/04/30 03:55:14;;;;;;;4.65;1.83;;;;;;;16.65;33.04;101170.72;4175128;28;20036;-46
2021/04/30 03:57:14;;;;;;;4.45;2.10;;;;;;;16.71;33.06;101180.75;4176686;28;20498;-45
2021/04/30 03:59:15;;;;;;;3.60;1.77;;;;;;;16.72;32.97;101177.72;4175632;28;20495;-52
2021/04/30 04:01:15;;;;;;;4.72;2.10;;;;;;;16.69;32.99;101172.72;4175774;28;20061;-44
2021/04/30 04:03:16;;;;;;;2.97;1.67;;;;;;;16.69;32.96;101169.94;4176458;28;20032;-44
2021/04/30 04:05:16;;;;;;;4.55;1.90;;;;;;;16.68;33.07;101175.72;4176938;28;20035;-51
2021/04/30 04:07:16;;;;;;;4.28;1.92;;;;;;;16.62;32.97;101166.53;4175669;28;20369;-44
2021/04/30 04:09:17;;;;;;;2.83;1.60;;;;;;;16.61;33.13;101164.84;4174106;28;20041;-45
2021/04/30 04:11:17;;;;;;;2.92;1.23;;;;;;;16.68;33.00;101173.81;4175214;28;20071;-46
2021/04/30 04:13:20;;;;;;;3.70;1.92;;;;;;;16.68;32.88;101171.06;4175688;28;20025;-46
2021/04/30 04:15:20;;;;;;;4.20;2.05;;;;;;;16.62;33.09;101166.53;4174710;28;20050;-47
2021/04/30 04:17:20;;;;;;;3.75;1.27;;;;;;;16.61;33.10;101172.31;4175613;28;20056;-46
2021/04/30 04:19:21;;;;;;;3.85;2.05;;;;;;;16.63;33.02;101168.16;4177225;28;20047;-45
2021/04/30 04:21:21;;;;;;;2.50;1.58;;;;;;;16.66;33.15;101177.91;4176395;28;20123;-45
2021/04/30 04:23:22;;;;;;;4.63;1.95;;;;;;;16.62;33.09;101172.03;4175591;28;20033;-50
2021/04/30 04:25:22;;;;;;;4.50;1.67;;;;;;;16.62;33.02;101174.81;4175743;28;20056;-45
2021/04/30 04:27:23;;;;;;;4.20;1.67;;;;;;;16.51;33.48;101167.44;4174830;28;20044;-48
2021/04/30 04:29:24;;;;;;;2.15;1.75;;;;;;;16.46;33.51;101178.44;4175959;28;20549;-48
2021/04/30 04:31:24;;;;;;;3.88;1.80;;;;;;;16.37;33.27;101148.50;4176422;28;20482;-45
2021/04/30 04:33:25;;;;;;;1.83;1.35;;;;;;;16.59;33.04;101178.09;4175551;28;20082;-44
2021/04/30 04:35:26;;;;;;;3.50;1.55;;;;;;;16.61;33.13;101177.84;4174631;28;20029;-46
2021/04/30 04:37:26;;;;;;;5.50;1.52;;;;;;;16.57;33.18;101169.19;4175347;28;20044;-48
2021/04/30 04:39:29;;;;;;;2.38;1.85;;;;;;;16.60;33.05;101173.38;4174746;28;20564;-45
2021/04/30 04:41:29;;;;;;;1.77;1.27;;;;;;;16.58;33.25;101174.47;4174267;28;20478;-52
2021/04/30 04:43:29;;;;;;;5.35;1.65;;;;;;;16.58;33.08;101184.69;4174669;28;20025;-47
2021/04/30 04:45:30;;;;;;;4.18;1.60;;;;;;;16.56;33.31;101173.91;4176289;28;20036;-45
2021/04/30 04:47:31;;;;;;;2.65;1.63;;;;;;;16.58;33.07;101180.00;4176624;28;20403;-44
2021/04/30 04:49:31;;;;;;;4.05;2.22;;;;;;;16.57;32.94;101170.06;4174037;28;20032;-50
2021/04/30 04:51:32;;;;;;;3.35;1.98;;;;;;;16.58;33.13;101180.00;4175838;28;20029;-47
2021/04/30 04:53:33;;;;;;;2.88;1.73;;;;;;;16.55;33.21;101176.91;4175152;28;20094;-46
2021/04/30 04:55:33;;;;;;;2.45;1.42;;;;;;;16.53;33.12;101177.16;4172980;28;20455;-52
2021/04/30 04:57:33;;;;;;;2.95;1.90;;;;;;;16.50;33.33;101193.44;4174795;28;20047;-45
2021/04/30 04:59:34;;;;;;;2.72;2.10;;;;;;;16.54;33.26;101191.81;4174483;28;20037;-51
2021/04/30 05:01:34;;;;;;;3.40;2.03;;;;;;;16.51;33.53;101193.19;4175777;28;20040;-47
2021/04/30 05:03:35;;;;;;;2.25;1.30;;;;;;;16.35;33.30;101166.41;4175324;28;20029;-48
2021/04/30 05:05:36;;;;;;;3.42;1.88;;;;;;;16.51;33.20;101198.69;4174904;28;20048;-48
2021/04/30 05:07:36;;;;;;;4.50;1.75;;;;;;;16.52;33.21;101196.78;4172242;28;20059;-47
2021/04/30 05:09:36;;;;;;;4.72;2.10;;;;;;;16.55;33.08;101193.50;4174324;28;20819;-47
2021/04/30 05:11:37;;;;;;;4.45;1.77;;;;;;;16.41;33.62;101181.13;4175658;28;20043;-45
2021/04/30 05:13:37;;;;;;;2.70;1.63;;;;;;;16.54;33.55;101202.88;4175652;28;20037;-49
2021/04/30 05:15:38;;;;;;;3.70;1.73;;;;;;;16.52;33.47;101194.81;4175553;28;20037;-47
2021/04/30 05:17:38;;;;;;;4.88;1.85;;;;;;;16.54;33.23;101197.34;4174019;28;20041;-45
2021/04/30 05:19:39;;;;;;;3.58;2.00;;;;;;;16.54;33.48;101197.34;4174586;28;20501;-48
2021/04/30 05:21:41;;;;;;;3.67;1.67;;;;;;;16.53;33.46;101206.75;4169518;28;20805;-45
2021/04/30 05:23:43;;;;;;;4.75;1.80;;;;;;;16.51;33.51;101211.66;4174182;28;20059;-47
2021/04/30 05:25:44;;;;;;;2.53;1.77;;;;;;;16.53;33.28;101201.22;4174416;28;20061;-48
2021/04/30 05:27:45;;;;;;;2.88;1.83;;;;;;;16.49;33.58;101213.84;4175327;28;20040;-50
2021/04/30 05:29:46;;;;;;;2.13;1.75;;;;;;;16.50;33.43;101210.84;4174112;28;20178;-51
2021/04/30 05:31:46;;;;;;;3.28;2.03;;;;;;;16.42;33.50;101210.41;4174189;28;20052;-45
2021/04/30 05:33:46;;;;;;;6.22;2.88;;;;;;;16.46;33.60;101222.66;4173566;28;20036;-44
2021/04/30 05:35:47;;;;;;;3.17;2.10;;;;;;;16.47;33.63;101221.56;4172367;28;20056;-46
2021/04/30 05:37:47;;;;;;;2.17;1.80;;;;;;;16.50;33.58;101221.88;4174375;28;20450;-44
2021/04/30 05:39:48;;;;;;;3.15;1.85;;;;;;;16.52;33.53;101216.13;4173949;28;20043;-46
2021/04/30 05:41:48;;;;;;;2.00;1.50;;;;;;;16.43;33.55;101206.59;4173610;28;20033;-45
2021/04/30 05:43:48;;;;;;;3.22;2.00;;;;;;;16.47;33.32;101221.56;4174486;28;20033;-44
2021/04/30 05:45:49;;;;;;;3.05;1.83;;;;;;;16.37;33.38;101198.22;4172720;28;20449;-46
2021/04/30 05:47:50;;;;;;;4.03;2.00;;;;;;;16.48;33.56;101224.09;4173653;28;20028;-45
2021/04/30 05:49:50;;;;;;;4.45;2.40;;;;;;;16.51;33.58;101229.09;4174032;28;20032;-44
2021/04/30 05:51:51;;;;;;;2.75;2.20;;;;;;;16.46;33.59;101219.88;4174493;28;20538;-47
2021/04/30 05:53:51;;;;;;;3.13;2.35;;;;;;;16.48;33.63;101225.97;4174630;28;20064;-44
2021/04/30 05:55:52;;;;;;;4.28;1.88;;;;;;;16.42;33.80;101227.00;4173513;28;20487;-45
2021/04/30 05:57:52;;;;;;;2.88;2.60;;;;;;;16.46;33.70;101222.66;4174805;28;20036;-46
2021/04/30 05:59:53;;;;;;;3.72;1.90;;;;;;;16.47;33.59;101222.41;4174827;28;20078;-48
2021/04/30 06:01:53;;;;;;;4.90;2.20;;;;;;;16.42;33.53;101214.03;4174707;28;20053;-44
2021/04/30 06:03:53;;;;;;;4.40;2.08;;;;;;;16.49;33.74;101222.16;4174399;28;20037;-51
2021/04/30 06:05:54;;;;;;;3.22;1.88;;;;;;;16.51;33.46;101222.72;4174468;28;20033;-47
2021/04/30 06:07:54;;;;;;;2.05;1.55;;;;;;;16.49;33.79;101222.97;4175810;28;20064;-44
2021/04/30 06:09:55;;;;;;;4.43;1.60;;;;;;;16.49;33.82;101224.91;4174891;28;20032;-45
2021/04/30 06:11:55;;;;;;;2.20;1.45;;;;;;;16.53;33.49;101223.31;4172787;28;20041;-49
2021/04/30 06:13:56;;;;;;;3.13;2.00;;;;;;;16.52;33.48;101224.41;4174198;28;20036;-45
2021/04/30 06:15:57;;;;;;;6.15;1.63;;;;;;;16.51;33.77;101234.63;4173809;28;20120;-45
2021/04/30 06:17:57;;;;;;;3.17;1.40;;;;;;;16.46;33.64;101219.88;4175467;28;20859;-45
2021/04/30 06:19:58;;;;;;;5.13;1.77;;;;;;;16.49;33.76;101234.03;4173522;28;20056;-46
2021/04/30 06:21:58;;;;;;;3.25;1.42;;;;;;;16.52;33.60;101239.03;4174895;28;20033;-47
2021/04/30 06:24:01;;;;;;;3.25;1.92;;;;;;;16.51;33.68;101248.44;4174511;28;20524;-47
2021/04/30 06:26:01;;;;;;;2.38;1.70;;;;;;;16.49;33.65;101241.47;4173819;28;20678;-48
2021/04/30 06:28:02;;;;;;;3.08;1.88;;;;;;;16.47;33.72;101247.25;4172321;28;20037;-48
2021/04/30 06:30:02;;;;;;;3.47;1.80;;;;;;;16.53;33.65;101250.94;4173726;28;20025;-47
2021/04/30 06:32:03;;;;;;;2.83;1.85;;;;;;;16.52;33.75;101252.03;4175180;28;20068;-44
2021/04/30 06:34:04;;;;;;;2.92;1.70;;;;;;;16.53;34.03;101253.72;4175642;28;20041;-49
2021/04/30 06:36:05;;;;;;;3.10;2.08;;;;;;;16.48;33.67;101237.03;4173023;28;20045;-51
2021/04/30 06:38:06;;;;;;;5.65;2.05;;;;;;;16.48;33.72;101251.72;4174216;28;20033;-48
2021/04/30 06:40:07;;;;;;;3.53;1.80;;;;;;;16.50;33.89;101251.47;4174401;28;20086;-48
2021/04/30 06:42:08;;;;;;;3.55;2.15;;;;;;;16.52;33.64;101247.34;4172508;28;20044;-48
2021/04/30 06:44:08;;;;;;;3.63;2.75;;;;;;;16.58;33.57;101249.09;4174196;28;20025;-47
2021/04/30 06:46:09;;;;;;;4.13;2.17;;;;;;;16.58;33.61;101245.50;4174468;28;20063;-45
2021/04/30 06:48:09;;;;;;;3.30;2.40;;;;;;;16.56;33.74;101253.22;4175030;28;20045;-45
2021/04/30 06:50:10;;;;;;;3.45;2.15;;;;;;;16.52;33.75;101243.75;4174963;28;20046;-45
2021/04/30 06:52:10;;;;;;;4.13;2.50;;;;;;;16.56;33.92;101251.28;4177243;28;20455;-47
2021/04/30 06:54:11;;;;;;;3.15;1.77;;;;;;;16.57;33.83;101250.19;4177933;28;20073;-48
2021/04/30 06:56:11;;;;;;;3.85;2.10;;;;;;;16.58;34.00;101259.31;4172980;28;20037;-47
2021/04/30 06:58:11;;;;;;;7.90;2.17;;;;;;;16.62;33.99;101256.88;4176298;28;20036;-47
2021/04/30 07:00:14;;;;;;;5.45;2.03;;;;;;;16.55;34.14;101246.81;4177567;28;20455;-46
2021/04/30 07:02:14;;;;;;;4.40;2.42;;;;;;;16.64;34.07;101258.28;4178250;28;20411;-44
2021/04/30 07:04:18;;;;;;;2.88;2.42;;;;;;;16.62;34.12;101248.56;4177846;28;20041;-48
2021/04/30 07:06:19;;;;;;;4.15;2.53;;;;;;;16.66;34.21;101260.84;4178241;28;20032;-46
2021/04/30 07:08:20;;;;;;;3.67;2.38;;;;;;;16.65;34.25;101259.16;4177502;28;20035;-51
2021/04/30 07:10:21;;;;;;;7.45;3.05;;;;;;;16.66;34.31;101261.66;4177276;28;20025;-47
2021/04/30 07:12:21;;;;;;;2.97;1.90;;;;;;;16.69;34.25;101263.09;4175852;28;20041;-50
2021/04/30 07:14:21;;;;;;;5.88;2.10;;;;;;;16.64;34.34;101261.06;4171745;28;20049;-46
2021/04/30 07:16:22;;;;;;;3.45;2.13;;;;;;;16.68;34.34;101264.19;4177652;28;20029;-45
2021/04/30 07:18:22;;;;;;;5.15;2.97;;;;;;;16.64;34.25;101252.78;4175353;28;20025;-47
2021/04/30 07:20:22;;;;;;;3.75;1.85;;;;;;;16.69;34.12;101269.44;4174551;28;20499;-46
2021/04/30 07:22:23;;;;;;;5.07;2.50;;;;;;;16.70;34.32;101262.00;4176672;28;20044;-48
2021/04/30 07:24:24;;;;;;;7.25;1.60;;;;;;;16.74;34.31;101276.97;4177193;28;20408;-47
2021/04/30 07:26:24;;;;;;;4.18;1.88;;;;;;;16.73;34.26;101270.63;4177045;28;20675;-45
2021/04/30 07:28:25;;;;;;;5.13;2.53;;;;;;;16.77;34.34;101275.66;4176774;28;20037;-44
2021/04/30 07:30:26;;;;;;;2.40;1.90;;;;;;;16.79;34.24;101274.31;4177330;28;20028;-45
2021/04/30 07:32:26;;;;;;;5.45;2.17;;;;;;;16.80;34.59;101278.72;4176666;28;20091;-47
2021/04/30 07:34:26;;;;;;;2.85;2.28;;;;;;;16.82;34.48;101276.56;4177910;28;20109;-47
2021/04/30 07:36:27;;;;;;;4.05;2.30;;;;;;;16.78;34.52;101269.03;4176489;28;20092;-47
2021/04/30 07:38:27;;;;;;;3.72;1.77;;;;;;;16.85;34.49;101280.72;4176701;28;20578;-46
2021/04/30 07:40:28;;;;;;;2.85;2.22;;;;;;;16.89;34.53;101284.66;4175062;28;20488;-50
2021/04/30 07:42:28;;;;;;;4.05;2.53;;;;;;;16.89;34.34;101285.50;4175074;28;20041;-47
2021/04/30 07:44:28;;;;;;;3.22;1.98;;;;;;;16.92;34.40;101270.34;4175372;28;20106;-49
2021/04/30 07:46:29;;;;;;;4.18;1.90;;;;;;;16.90;34.46;101269.75;4173772;28;20036;-48
2021/04/30 07:48:30;;;;;;;3.95;2.63;;;;;;;16.95;34.32;101277.28;4173320;28;20434;-46
2021/04/30 07:50:30;;;;;;;11.55;3.00;;;;;;;16.97;34.57;101275.91;4175889;28;20045;-47
2021/04/30 07:52:31;;;;;;;8.05;2.83;;;;;;;16.97;34.50;101277.88;4174976;28;20443;-47
2021/04/30 07:54:32;;;;;;;8.15;3.20;;;;;;;16.95;34.39;101274.53;4176169;28;20515;-47
2021/04/30 07:56:32;;;;;;;10.95;3.05;;;;;;;17.01;34.58;101274.34;4173923;28;20033;-48
2021/04/30 07:58:35;;;;;;;6.10;2.65;;;;;;;17.03;34.72;101272.13;4176168;28;20500;-47
2021/04/30 08:00:35;;;;;;;6.47;3.00;;;;;;;16.99;34.82;101275.66;4175970;28;20628;-45
2021/04/30 08:02:36;;;;;;;4.72;3.17;;;;;;;17.02;34.79;101264.94;4175318;28;20031;-49
2021/04/30 08:04:36;;;;;;;11.32;2.85;;;;;;;17.06;34.59;101279.09;4175271;28;20048;-47
2021/04/30 08:06:38;;;;;;;4.90;2.90;;;;;;;17.04;34.96;101279.34;4174959;28;20383;-49
2021/04/30 08:08:40;;;;;;;6.07;3.17;;;;;;;17.09;34.87;101287.72;4175175;28;20093;-48
2021/04/30 08:10:40;;;;;;;5.82;2.90;;;;;;;17.10;34.81;101283.84;4174629;28;20064;-46
2021/04/30 08:12:41;;;;;;;5.55;2.33;;;;;;;17.11;34.84;101282.75;4175005;28;20805;-47
2021/04/30 08:14:42;;;;;;;6.60;2.95;;;;;;;17.18;34.66;101285.34;4176948;28;20037;-46
2021/04/30 08:16:42;;;;;;;5.03;2.90;;;;;;;17.18;34.64;101284.47;4175394;28;20028;-50
2021/04/30 08:18:43;;;;;;;7.50;2.90;;;;;;;17.17;34.58;101275.34;4175098;28;20025;-50
2021/04/30 08:20:43;;;;;;;7.82;3.38;;;;;;;17.21;34.64;101281.19;4176849;28;20486;-49
2021/04/30 08:22:44;;;;;;;4.93;3.53;;;;;;;17.15;34.83;101268.41;4172621;28;20025;-49
2021/04/30 08:24:44;;;;;;;6.60;3.00;;;;;;;17.24;34.53;101286.22;4175598;28;20037;-45
2021/04/30 08:26:45;;;;;;;6.68;2.70;;;;;;;17.27;34.75;101282.94;4175088;28;20036;-48
2021/04/30 08:28:45;;;;;;;6.22;3.60;;;;;;;17.25;34.72;101276.84;4174799;28;20054;-49
2021/04/30 08:30:45;;;;;;;4.28;1.90;;;;;;;17.29;34.62;101289.06;4174807;28;20048;-48
2021/04/30 08:32:46;;;;;;;6.25;2.50;;;;;;;17.24;34.50;101272.38;4174884;28;20495;-45
2021/04/30 08:34:46;;;;;;;6.47;2.13;;;;;;;17.31;34.73;101284.09;4173927;28;20033;-52
2021/04/30 08:36:47;;;;;;;6.38;2.70;;;;;;;17.27;34.62;101280.19;4174558;28;20052;-47
2021/04/30 08:38:47;;;;;;;3.85;2.53;;;;;;;17.31;34.63;101284.09;4174631;28;20044;-45
2021/04/30 08:40:48;;;;;;;4.53;2.13;;;;;;;17.29;34.67;101278.84;4174620;28;20082;-47
2021/04/30 08:42:50;;;;;;;3.78;2.63;;;;;;;17.40;34.64;101287.28;4173630;28;20091;-50
2021/04/30 08:44:50;;;;;;;4.60;2.80;;;;;;;17.26;34.50;101271.06;4174897;28;20032;-51
2021/04/30 08:46:51;;;;;;;5.35;2.15;;;;;;;17.39;34.63;101286.41;4175413;28;20029;-45
2021/04/30 08:48:51;;;;;;;3.97;2.10;;;;;;;17.43;34.61;101293.13;4174234;28;20060;-50
2021/04/30 08:50:55;;;;;;;4.03;2.30;;;;;;;17.11;34.74;101296.56;4174195;28;20032;-54
2021/04/30 08:52:56;;;;;;;4.32;2.33;;;;;;;17.44;34.92;101291.19;4171466;28;20083;-45
2021/04/30 08:54:58;;;;;;;6.00;2.13;;;;;;;18.24;34.00;101302.56;4173756;28;20111;-50
2021/04/30 08:57:03;;;;;;;10.65;2.22;;;;;;;18.76;32.95;101264.19;4175212;28;20024;-48
2021/04/30 08:59:05;;;;;;;5.03;1.58;;;;;;;19.33;32.72;101301.41;4178001;28;20036;-52
2021/04/30 09:01:06;;;;;;;4.03;1.92;;;;;;;19.82;31.86;101303.78;4173644;28;20091;-45
2021/04/30 09:03:10;;;;;;;9.13;1.77;;;;;;;20.15;31.48;101304.41;4175326;28;20154;-43
2021/04/30 09:05:13;;;;;;;3.47;1.70;;;;;;;20.52;31.22;101308.03;4168421;28;20033;-46
2021/04/30 09:07:16;;;;;;;7.70;2.13;;;;;;;20.71;30.92;101308.31;4172495;28;20036;-44
2021/04/30 09:09:18;;;;;;;5.95;1.70;;;;;;;20.94;30.90;101316.06;4175242;28;20033;-46
2021/04/30 09:11:35;;;;;;;4.85;1.58;;;;;;;21.19;30.78;101311.53;4173401;28;20025;-45
2021/04/30 09:13:40;;;;;;;3.90;1.50;;;;;;;21.24;30.67;101275.34;4172452;28;20033;-43
2021/04/30 09:15:43;;;;;;;5.07;1.60;;;;;;;21.66;30.48;101301.06;4165042;28;20029;-45
2021/04/30 09:17:45;;;;;;;2.08;1.45;;;;;;;21.82;30.32;101293.44;4173753;28;20693;-45
2021/04/30 09:19:50;;;;;;;4.72;1.17;;;;;;;22.01;30.24;101294.47;4174142;28;20047;-46
2021/04/30 09:22:01;;;;;;;3.72;1.60;;;;;;;22.23;30.18;101316.31;4172675;28;20029;-44